TimeCDT,TemperatureF,Dew PointF,Humidity,Sea Level PressureIn,VisibilityMPH,Wind Direction,Wind SpeedMPH,Gust SpeedMPH,PrecipitationIn,Events,Conditions,WindDirDegrees,DateUTC
12:39 AM,57.2,55.4,94,29.64,3.0,East,3.5,-,N/A,,Overcast,90,2013-03-24 05:39:00
12:46 AM,57.2,57.2,100,29.64,3.0,NE,1.2,-,N/A,,Light Drizzle,50,2013-03-24 05:46:00
12:51 AM,57.2,57.2,100,29.64,2.0,East,3.5,-,N/A,,Light Drizzle,100,2013-03-24 05:51:00
12:56 AM,57.2,57.2,100,29.63,1.8,East,4.6,-,N/A,Rain,Light Rain,90,2013-03-24 05:56:00
12:58 AM,57.2,57.2,100,29.64,1.8,East,4.6,-,0.02,Rain,Light Rain,90,2013-03-24 05:58:00
1:02 AM,57.2,57.2,100,29.63,1.5,East,4.6,-,N/A,,Overcast,100,2013-03-24 06:02:00
1:09 AM,57.2,57.2,100,29.63,1.5,East,3.5,-,N/A,,Light Drizzle,90,2013-03-24 06:09:00
1:14 AM,57.2,57.2,100,29.63,1.2,ENE,3.5,-,N/A,,Light Drizzle,70,2013-03-24 06:14:00
1:24 AM,57.2,57.2,100,29.62,1.5,East,3.5,-,N/A,Rain,Light Rain,90,2013-03-24 06:24:00
1:26 AM,57.2,57.2,100,29.62,1.5,East,4.6,-,N/A,,Overcast,80,2013-03-24 06:26:00
1:41 AM,57.2,57.2,100,29.61,1.2,East,5.8,-,N/A,,Overcast,90,2013-03-24 06:41:00
1:46 AM,57.2,57.2,100,29.61,1.0,East,5.8,-,N/A,,Mist,100,2013-03-24 06:46:00
1:51 AM,59.0,57.2,94,29.61,0.8,East,5.8,-,N/A,,Mist,100,2013-03-24 06:51:00
1:56 AM,59.0,57.2,94,29.60,0.8,ESE,5.8,-,N/A,,Mist,110,2013-03-24 06:56:00
1:58 AM,59.0,57.2,94,29.61,0.8,ESE,5.8,-,0.01,,Mist,110,2013-03-24 06:58:00
2:03 AM,59.0,59.0,100,29.59,0.8,ESE,5.8,-,N/A,,Mist,120,2013-03-24 07:03:00
2:08 AM,59.0,59.0,100,29.59,0.5,SE,4.6,-,N/A,Fog,Fog,140,2013-03-24 07:08:00
2:13 AM,59.0,59.0,100,29.59,0.5,SE,4.6,-,N/A,Fog,Fog,130,2013-03-24 07:13:00
2:16 AM,59.0,59.0,100,29.59,0.5,SE,4.6,-,N/A,Fog-Thunderstorm,Unknown,140,2013-03-24 07:16:00
2:21 AM,59.0,59.0,100,29.58,0.5,SSE,4.6,-,N/A,Fog-Rain-Thunderstorm,Light Thunderstorms and Rain,150,2013-03-24 07:21:00
2:26 AM,59.0,59.0,100,29.58,0.8,SSE,4.6,-,N/A,Rain-Thunderstorm,Light Thunderstorms and Rain,150,2013-03-24 07:26:00
2:31 AM,60.8,59.0,94,29.58,1.0,SE,5.8,-,N/A,Rain-Thunderstorm,Light Thunderstorms and Rain,140,2013-03-24 07:31:00
2:35 AM,60.8,60.8,100,29.57,1.2,SE,5.8,-,N/A,,Light Drizzle,140,2013-03-24 07:35:00
2:40 AM,60.8,60.8,100,29.57,1.5,SE,5.8,-,N/A,,Light Drizzle,140,2013-03-24 07:40:00
2:50 AM,60.8,60.8,100,29.57,2.0,SSE,8.1,-,N/A,Rain,Light Rain,150,2013-03-24 07:50:00
2:55 AM,60.8,60.8,100,29.56,1.8,SSE,8.1,-,N/A,Rain,Light Rain,150,2013-03-24 07:55:00
2:58 AM,61.3,61.3,100,29.57,1.5,SSE,6.9,-,0.02,Rain,Light Rain,150,2013-03-24 07:58:00
3:03 AM,60.8,60.8,100,29.56,1.0,South,5.8,-,N/A,Rain,Light Rain,170,2013-03-24 08:03:00
3:13 AM,62.6,62.6,100,29.56,1.2,SW,5.8,-,N/A,Rain,Light Rain,220,2013-03-24 08:13:00
3:18 AM,62.6,62.6,100,29.55,1.5,SSW,5.8,-,N/A,Rain,Light Rain,200,2013-03-24 08:18:00
3:28 AM,62.6,62.6,100,29.55,1.2,SSW,5.8,-,N/A,Rain,Light Rain,210,2013-03-24 08:28:00
3:33 AM,62.6,62.6,100,29.55,1.5,SSW,5.8,-,N/A,Rain,Light Rain,210,2013-03-24 08:33:00
3:43 AM,62.6,62.6,100,29.55,2.5,West,4.6,-,N/A,Rain,Light Rain,280,2013-03-24 08:43:00
3:53 AM,62.6,62.6,100,29.55,1.5,West,3.5,-,N/A,,Light Drizzle,260,2013-03-24 08:53:00
3:57 AM,62.6,60.8,94,29.54,1.5,WSW,2.3,-,N/A,,Overcast,240,2013-03-24 08:57:00
3:58 AM,62.6,60.8,94,29.55,1.5,SW,1.2,-,0.04,,Overcast,230,2013-03-24 08:58:00
4:03 AM,62.6,62.6,100,29.54,1.2,South,1.2,-,N/A,,Overcast,180,2013-03-24 09:03:00
4:18 AM,62.6,62.6,100,29.53,1.5,SW,4.6,-,N/A,,Overcast,220,2013-03-24 09:18:00
4:23 AM,62.6,62.6,100,29.53,1.2,SW,4.6,-,N/A,,Overcast,230,2013-03-24 09:23:00
4:38 AM,62.6,62.6,100,29.52,1.0,West,4.6,-,N/A,,Mist,260,2013-03-24 09:38:00
4:43 AM,62.6,62.6,100,29.52,0.8,West,4.6,-,N/A,,Mist,270,2013-03-24 09:43:00
4:48 AM,62.6,62.6,100,29.52,0.8,WSW,4.6,-,N/A,,Mist,250,2013-03-24 09:48:00
4:53 AM,62.6,62.6,100,29.52,0.8,WSW,4.6,-,N/A,,Mist,240,2013-03-24 09:53:00
4:58 AM,62.6,62.6,100,29.54,0.8,WSW,5.8,-,0.00,,Mist,250,2013-03-24 09:58:00
5:03 AM,62.6,62.6,100,29.53,0.8,SW,4.6,-,N/A,,Mist,230,2013-03-24 10:03:00
5:13 AM,64.4,64.4,100,29.53,0.8,SW,5.8,-,N/A,,Mist,230,2013-03-24 10:13:00
5:18 AM,64.4,64.4,100,29.52,1.2,SW,5.8,-,N/A,,Overcast,230,2013-03-24 10:18:00
5:23 AM,64.4,64.4,100,29.53,2.5,SW,5.8,-,N/A,,Overcast,220,2013-03-24 10:23:00
5:28 AM,64.4,64.4,100,29.53,4.0,SW,5.8,-,N/A,,Overcast,220,2013-03-24 10:28:00
5:43 AM,64.4,64.4,100,29.53,6.0,WSW,6.9,-,N/A,,Mostly Cloudy,240,2013-03-24 10:43:00
5:48 AM,66.2,66.2,100,29.53,6.0,WSW,6.9,-,N/A,,Mostly Cloudy,250,2013-03-24 10:48:00
5:58 AM,65.7,65.7,100,29.54,5.0,WSW,8.1,-,N/A,,Mostly Cloudy,250,2013-03-24 10:58:00
6:23 AM,66.2,66.2,100,29.52,6.0,WSW,10.4,-,N/A,,Mostly Cloudy,240,2013-03-24 11:23:00
6:28 AM,66.2,66.2,100,29.53,6.0,WSW,9.2,-,N/A,,Mostly Cloudy,240,2013-03-24 11:28:00
6:33 AM,68.0,68.0,100,29.53,6.0,WSW,10.4,-,N/A,,Mostly Cloudy,240,2013-03-24 11:33:00
6:43 AM,68.0,68.0,100,29.53,6.0,WSW,10.4,-,N/A,,Mostly Cloudy,240,2013-03-24 11:43:00
6:48 AM,68.0,68.0,100,29.53,6.0,WSW,10.4,-,N/A,,Mostly Cloudy,240,2013-03-24 11:48:00
6:53 AM,68.0,68.0,100,29.53,6.0,WSW,11.5,-,N/A,,Overcast,250,2013-03-24 11:53:00
6:58 AM,68.2,68.2,100,29.54,6.0,West,18.4,25.3,N/A,,Overcast,270,2013-03-24 11:58:00
6:59 AM,68.0,68.0,100,29.53,6.0,WNW,19.6,25.3,N/A,,Overcast,290,2013-03-24 11:59:00
7:04 AM,68.0,68.0,100,29.54,7.0,WNW,15.0,25.3,N/A,,Overcast,290,2013-03-24 12:04:00
7:09 AM,66.2,66.2,100,29.55,9.0,WNW,9.2,-,N/A,,Overcast,290,2013-03-24 12:09:00
7:14 AM,66.2,64.4,94,29.55,10.0,WNW,10.4,-,N/A,,Mostly Cloudy,290,2013-03-24 12:14:00
7:24 AM,64.4,64.4,100,29.55,10.0,West,5.8,-,N/A,,Scattered Clouds,280,2013-03-24 12:24:00
7:58 AM,64.4,63.9,98,29.57,10.0,West,9.2,-,N/A,,Clear,270,2013-03-24 12:58:00
8:58 AM,64.8,59.7,84,29.59,10.0,NW,5.8,-,N/A,,Clear,320,2013-03-24 13:58:00
9:58 AM,67.5,59.5,76,29.62,10.0,WNW,6.9,-,N/A,,Clear,300,2013-03-24 14:58:00
10:58 AM,70.2,59.0,68,29.62,10.0,West,6.9,-,N/A,,Clear,270,2013-03-24 15:58:00
11:58 AM,73.6,59.2,61,29.65,10.0,West,10.4,18.4,N/A,,Clear,260,2013-03-24 16:58:00
12:58 PM,76.1,58.6,55,29.62,10.0,West,11.5,-,N/A,,Clear,260,2013-03-24 17:58:00
1:58 PM,77.7,58.1,51,29.59,10.0,West,11.5,18.4,N/A,,Clear,270,2013-03-24 18:58:00
2:58 PM,79.0,58.3,49,29.58,10.0,WSW,18.4,20.7,N/A,,Clear,250,2013-03-24 19:58:00
3:58 PM,79.5,57.6,47,29.57,10.0,West,13.8,24.2,N/A,,Partly Cloudy,270,2013-03-24 20:58:00
4:58 PM,79.2,57.2,47,29.57,10.0,West,13.8,19.6,N/A,,Clear,270,2013-03-24 21:58:00
6:58 PM,68.7,57.0,66,29.64,10.0,WNW,16.1,34.5,N/A,,Clear,300,2013-03-24 23:58:00
7:58 PM,62.8,48.0,59,29.70,10.0,WNW,15.0,32.2,N/A,,Clear,290,2013-03-25 00:58:00
8:58 PM,58.5,43.9,58,29.77,10.0,WNW,10.4,24.2,N/A,,Clear,290,2013-03-25 01:58:00
9:58 PM,56.5,37.8,50,29.80,10.0,WNW,15.0,27.6,N/A,,Clear,290,2013-03-25 02:58:00
10:58 PM,52.2,36.7,56,29.84,10.0,WNW,16.1,23.0,N/A,,Clear,300,2013-03-25 03:58:00
11:58 PM,46.4,30.4,54,29.87,10.0,NW,17.3,24.2,N/A,,Clear,310,2013-03-25 04:58:00